Dades meteomassalio
Diari Summary for Octubre 6, 2017 Units:  Metric    English   Both
« Previous Day
Next Day »
Diari Semanal Mensual Anual Personalitzat
  Maxima: Minima: Mijana:
Temperatura: 25.0 °C 12.8 °C 19 °C
Rosada: 12.5 °C 7.7 °C 10.4 °C
Humitat: 72 % 43 % 59 %
Velocitat del vent: 42.6 km/h 5.6 km/h 24.4 km/h
Racha vent: 42.6 km/h - -
Vent:- - SSW
Pressio: 1023.2 hPa 1019.5 hPa -
Pluja: 0.0 mm    
Historical Graphs
 
 
Tabular Data for Octubre 6, 2017
Time Temperature Dew Point Pressure Wind Wind Speed Wind Gust Humidity Rainfall Rate (Hourly) solar Conditions
00:00 20.0 °C 12.2 °C 1021.6 hPa SSW 20.4 km/h 20.4 km/h 61 % 0.0 mm 0.0 W/m2 CLR
00:05 20.0 °C 12.2 °C 1021.9 hPa South 20.4 km/h 20.4 km/h 61 % 0.0 mm 0.0 W/m2 CLR
00:15 19.4 °C 11.9 °C 1021.9 hPa SSW 27.8 km/h 27.8 km/h 62 % 0.0 mm 0.0 W/m2 CLR
00:20 19.4 °C 11.9 °C 1021.9 hPa SSW 20.4 km/h 22.7 km/h 62 % 0.0 mm 0.0 W/m2 CLR
00:35 19.4 °C 12.2 °C 1021.9 hPa SW 29.6 km/h 29.6 km/h 63 % 0.0 mm 0.0 W/m2 CLR
00:40 19.4 °C 12.2 °C 1021.9 hPa SW 29.6 km/h 29.6 km/h 63 % 0.0 mm 0.0 W/m2 CLR
00:45 18.9 °C 11.9 °C 1021.9 hPa SSW 25.9 km/h 25.9 km/h 64 % 0.0 mm 0.0 W/m2 CLR
00:50 18.9 °C 11.9 °C 1021.9 hPa SSW 20.4 km/h 20.4 km/h 64 % 0.0 mm 0.0 W/m2 CLR
00:55 18.9 °C 11.9 °C 1021.9 hPa SSW 25.9 km/h 25.9 km/h 64 % 0.0 mm 0.0 W/m2 CLR
01:00 18.9 °C 11.9 °C 1021.9 hPa SSW 24.1 km/h 24.1 km/h 64 % 0.0 mm 0.0 W/m2 CLR
01:05 18.9 °C 12.2 °C 1021.9 hPa SW 18.5 km/h 18.5 km/h 65 % 0.0 mm 0.0 W/m2 CLR
01:10 18.3 °C 11.6 °C 1021.6 hPa SW 22.2 km/h 22.2 km/h 65 % 0.0 mm 0.0 W/m2 CLR
01:15 18.3 °C 11.6 °C 1021.9 hPa SSW 18.5 km/h 18.5 km/h 65 % 0.0 mm 0.0 W/m2 CLR
01:20 18.3 °C 11.6 °C 1021.9 hPa SSW 22.2 km/h 22.2 km/h 65 % 0.0 mm 0.0 W/m2 CLR
01:25 18.3 °C 11.6 °C 1021.9 hPa South 22.2 km/h 22.2 km/h 65 % 0.0 mm 0.0 W/m2 CLR
01:30 18.3 °C 11.6 °C 1021.9 hPa SSW 14.8 km/h 14.8 km/h 65 % 0.0 mm 0.0 W/m2 CLR
01:35 18.3 °C 11.6 °C 1021.6 hPa South 6.4 km/h 6.4 km/h 65 % 0.0 mm 0.0 W/m2 CLR
01:40 17.8 °C 11.1 °C 1021.6 hPa South 11.1 km/h 11.1 km/h 65 % 0.0 mm 0.0 W/m2 CLR
01:45 17.8 °C 11.3 °C 1021.6 hPa South 13.0 km/h 13.0 km/h 66 % 0.0 mm 0.0 W/m2 CLR
01:55 17.2 °C 10.8 °C 1021.9 hPa SSW 13.0 km/h 13.0 km/h 66 % 0.0 mm 0.0 W/m2 CLR
02:00 17.2 °C 10.8 °C 1021.9 hPa South 19.3 km/h 19.3 km/h 66 % 0.0 mm 0.0 W/m2 CLR
02:05 17.2 °C 10.8 °C 1021.9 hPa South 18.5 km/h 18.5 km/h 66 % 0.0 mm 0.0 W/m2 CLR
02:10 17.2 °C 10.8 °C 1021.9 hPa SSW 18.5 km/h 18.5 km/h 66 % 0.0 mm 0.0 W/m2 CLR
02:11 17.2 °C 10.8 °C 1021.9 hPa SSW 18.5 km/h 18.5 km/h 66 % 0.0 mm 0.0 W/m2 CLR
02:16 17.2 °C 10.8 °C 1021.9 hPa South 24.1 km/h 24.1 km/h 66 % 0.0 mm 0.0 W/m2 CLR
02:21 17.8 °C 11.3 °C 1021.9 hPa SW 18.5 km/h 18.5 km/h 66 % 0.0 mm 0.0 W/m2 CLR
02:31 17.8 °C 11.3 °C 1021.9 hPa SSW 31.5 km/h 31.5 km/h 66 % 0.0 mm 0.0 W/m2 CLR
02:36 17.8 °C 11.6 °C 1021.9 hPa SSW 25.9 km/h 25.9 km/h 67 % 0.0 mm 0.0 W/m2 CLR
02:41 17.8 °C 11.6 °C 1021.9 hPa SW 27.8 km/h 27.8 km/h 67 % 0.0 mm 0.0 W/m2 CLR
02:46 17.8 °C 11.8 °C 1021.9 hPa SSW 22.5 km/h 22.5 km/h 68 % 0.0 mm 0.0 W/m2 CLR
02:51 17.8 °C 11.8 °C 1021.9 hPa SW 31.5 km/h 31.5 km/h 68 % 0.0 mm 0.0 W/m2 CLR
02:56 17.8 °C 11.8 °C 1021.9 hPa SSW 22.2 km/h 22.2 km/h 68 % 0.0 mm 0.0 W/m2 CLR
03:01 17.8 °C 11.8 °C 1021.9 hPa South 22.2 km/h 22.2 km/h 68 % 0.0 mm 0.0 W/m2 CLR
03:06 17.2 °C 11.3 °C 1021.9 hPa SSW 22.2 km/h 22.2 km/h 68 % 0.0 mm 0.0 W/m2 CLR
03:11 17.2 °C 11.3 °C 1021.9 hPa SSW 18.5 km/h 18.5 km/h 68 % 0.0 mm 0.0 W/m2 CLR
03:16 17.2 °C 11.5 °C 1021.9 hPa SSW 22.5 km/h 22.5 km/h 69 % 0.0 mm 0.0 W/m2 CLR
03:21 17.2 °C 11.5 °C 1021.9 hPa South 18.5 km/h 18.5 km/h 69 % 0.0 mm 0.0 W/m2 CLR
03:31 17.2 °C 11.5 °C 1021.9 hPa SSW 24.1 km/h 24.1 km/h 69 % 0.0 mm 0.0 W/m2 CLR
03:36 17.2 °C 11.5 °C 1021.9 hPa SSW 16.7 km/h 16.7 km/h 69 % 0.0 mm 0.0 W/m2 CLR
03:41 16.7 °C 10.9 °C 1021.9 hPa SSW 16.7 km/h 16.7 km/h 69 % 0.0 mm 0.0 W/m2 CLR
03:46 16.7 °C 11.2 °C 1021.6 hPa SSW 16.7 km/h 16.7 km/h 70 % 0.0 mm 0.0 W/m2 CLR
03:51 16.7 °C 11.2 °C 1021.6 hPa South 24.1 km/h 24.1 km/h 70 % 0.0 mm 0.0 W/m2 CLR
03:56 16.7 °C 11.2 °C 1021.6 hPa South 18.5 km/h 18.5 km/h 70 % 0.0 mm 0.0 W/m2 CLR
04:01 16.1 °C 10.6 °C 1021.6 hPa South 18.5 km/h 18.5 km/h 70 % 0.0 mm 0.0 W/m2 CLR
04:06 16.1 °C 10.6 °C 1021.6 hPa SW 22.5 km/h 22.5 km/h 70 % 0.0 mm 0.0 W/m2 CLR
04:08 16.1 °C 10.6 °C 1021.6 hPa South 22.5 km/h 22.5 km/h 70 % 0.0 mm 0.0 W/m2 CLR
04:13 16.1 °C 10.6 °C 1021.6 hPa SSW 18.5 km/h 18.5 km/h 70 % 0.0 mm 0.0 W/m2 CLR
04:18 16.1 °C 10.8 °C 1021.6 hPa SSW 16.7 km/h 16.7 km/h 71 % 0.0 mm 0.0 W/m2 CLR
04:23 16.1 °C 10.8 °C 1021.6 hPa SSW 22.5 km/h 22.5 km/h 71 % 0.0 mm 0.0 W/m2 CLR
04:33 16.1 °C 10.8 °C 1021.6 hPa SSW 18.5 km/h 18.5 km/h 71 % 0.0 mm 0.0 W/m2 CLR
04:38 16.1 °C 10.8 °C 1021.6 hPa SSW 20.4 km/h 20.4 km/h 71 % 0.0 mm 0.0 W/m2 CLR
04:43 16.1 °C 10.8 °C 1021.6 hPa SSW 18.5 km/h 18.5 km/h 71 % 0.0 mm 0.0 W/m2 CLR
04:48 16.1 °C 10.8 °C 1021.6 hPa SSW 18.5 km/h 18.5 km/h 71 % 0.0 mm 0.0 W/m2 CLR
04:53 16.1 °C 10.8 °C 1021.6 hPa SSW 16.7 km/h 16.7 km/h 71 % 0.0 mm 0.0 W/m2 CLR
04:58 16.1 °C 10.8 °C 1021.6 hPa South 22.2 km/h 22.2 km/h 71 % 0.0 mm 0.0 W/m2 CLR
05:03 16.1 °C 10.8 °C 1021.6 hPa SSW 16.7 km/h 16.7 km/h 71 % 0.0 mm 0.0 W/m2 CLR
05:14 15.6 °C 10.5 °C 1021.6 hPa South 11.1 km/h 11.1 km/h 72 % 0.0 mm 0.0 W/m2 CLR
05:19 15.6 °C 10.5 °C 1021.6 hPa South 11.1 km/h 11.1 km/h 72 % 0.0 mm 0.0 W/m2 CLR
05:23 15.6 °C 10.5 °C 1021.6 hPa South 13.0 km/h 13.0 km/h 72 % 0.0 mm 0.0 W/m2 CLR
05:24 15.6 °C 10.5 °C 1021.6 hPa SSW 14.5 km/h 14.5 km/h 72 % 0.0 mm 0.0 W/m2 CLR
05:27 15.0 °C 10.0 °C 1021.6 hPa SSW 12.9 km/h 12.9 km/h 72 % 0.0 mm 0.0 W/m2 CLR
05:32 15.0 °C 10.0 °C 1021.6 hPa South 18.5 km/h 18.5 km/h 72 % 0.0 mm 0.0 W/m2 CLR
05:42 15.0 °C 10.0 °C 1021.6 hPa South 13.0 km/h 13.0 km/h 72 % 0.0 mm 0.0 W/m2 CLR
05:47 15.0 °C 10.0 °C 1021.6 hPa South 9.3 km/h 9.3 km/h 72 % 0.0 mm 0.0 W/m2 CLR
05:57 15.0 °C 10.0 °C 1021.6 hPa SSW 18.5 km/h 18.5 km/h 72 % 0.0 mm 0.0 W/m2 CLR
06:02 15.0 °C 10.0 °C 1021.6 hPa SSW 24.1 km/h 24.1 km/h 72 % 0.0 mm 0.0 W/m2 CLR
06:08 15.0 °C 10.0 °C 1021.6 hPa SSW 16.7 km/h 16.7 km/h 72 % 0.0 mm 0.0 W/m2 CLR
06:13 15.0 °C 10.0 °C 1021.6 hPa South 20.4 km/h 20.4 km/h 72 % 0.0 mm 0.0 W/m2 CLR
06:18 15.0 °C 10.0 °C 1021.6 hPa SSW 24.1 km/h 24.1 km/h 72 % 0.0 mm 0.0 W/m2 CLR
06:23 15.6 °C 10.5 °C 1021.6 hPa SSW 20.4 km/h 20.4 km/h 72 % 0.0 mm 0.0 W/m2 CLR
06:28 15.6 °C 10.5 °C 1021.6 hPa SSW 18.5 km/h 18.5 km/h 72 % 0.0 mm 0.0 W/m2 CLR
06:33 15.6 °C 10.5 °C 1021.6 hPa SSW 18.5 km/h 18.5 km/h 72 % 0.0 mm 0.0 W/m2 CLR
06:38 15.6 °C 10.5 °C 1021.6 hPa South 18.5 km/h 18.5 km/h 72 % 0.0 mm 0.0 W/m2 CLR
06:43 15.0 °C 10.0 °C 1021.9 hPa South 16.7 km/h 16.7 km/h 72 % 0.0 mm 0.0 W/m2 CLR
06:48 15.0 °C 10.0 °C 1021.6 hPa SW 16.7 km/h 16.7 km/h 72 % 0.0 mm 0.0 W/m2 CLR
06:53 14.4 °C 9.4 °C 1021.6 hPa SSE 13.0 km/h 13.0 km/h 72 % 0.0 mm 0.0 W/m2 CLR
06:58 14.4 °C 9.4 °C 1021.9 hPa South 9.3 km/h 9.3 km/h 72 % 0.0 mm 0.0 W/m2 CLR
07:03 14.4 °C 9.4 °C 1021.9 hPa SSW 16.7 km/h 16.7 km/h 72 % 0.0 mm 0.0 W/m2 CLR
07:08 14.4 °C 9.4 °C 1021.9 hPa SSW 14.8 km/h 14.8 km/h 72 % 0.0 mm 0.0 W/m2 CLR
07:13 14.4 °C 9.4 °C 1021.9 hPa SSW 22.2 km/h 22.2 km/h 72 % 0.0 mm 0.0 W/m2 CLR
07:18 14.4 °C 9.4 °C 1021.9 hPa South 5.6 km/h 6.0 km/h 72 % 0.0 mm 0.0 W/m2 CLR
07:28 13.9 °C 8.9 °C 1021.9 hPa South 22.2 km/h 22.2 km/h 72 % 0.0 mm 0.0 W/m2 CLR
07:33 13.9 °C 8.9 °C 1021.9 hPa SSE 14.8 km/h 14.8 km/h 72 % 0.0 mm 0.0 W/m2 CLR
07:38 13.3 °C 8.4 °C 1021.9 hPa South 9.3 km/h 9.3 km/h 72 % 0.0 mm 0.0 W/m2 CLR
07:43 13.3 °C 8.4 °C 1021.9 hPa South 18.5 km/h 18.5 km/h 72 % 0.0 mm 0.0 W/m2 CLR
07:48 13.3 °C 8.4 °C 1021.9 hPa SSW 16.7 km/h 16.7 km/h 72 % 0.0 mm 0.0 W/m2 CLR
07:53 13.3 °C 8.4 °C 1021.9 hPa South 9.3 km/h 9.3 km/h 72 % 0.0 mm 0.0 W/m2 CLR
07:58 13.3 °C 8.4 °C 1021.9 hPa South 14.8 km/h 14.8 km/h 72 % 0.0 mm 0.0 W/m2 CLR
08:03 13.3 °C 8.4 °C 1022.2 hPa South 7.4 km/h 7.4 km/h 72 % 0.0 mm 5.0 W/m2 OVC
08:08 12.8 °C 7.8 °C 1022.2 hPa SSE 16.7 km/h 16.7 km/h 72 % 0.0 mm 7.0 W/m2 BKN
08:13 12.8 °C 7.8 °C 1022.2 hPa South 14.8 km/h 14.8 km/h 72 % 0.0 mm 11.0 W/m2 BKN
08:18 12.8 °C 7.7 °C 1022.2 hPa SSW 18.5 km/h 18.5 km/h 71 % 0.0 mm 14.0 W/m2 BKN
08:23 12.8 °C 7.7 °C 1022.2 hPa SSW 16.7 km/h 16.7 km/h 71 % 0.0 mm 16.0 W/m2 BKN
08:28 13.3 °C 8.2 °C 1022.2 hPa SSW 13.0 km/h 13.0 km/h 71 % 0.0 mm 19.0 W/m2 BKN
08:33 13.3 °C 8.0 °C 1022.2 hPa South 14.8 km/h 14.8 km/h 70 % 0.0 mm 28.0 W/m2 BKN
08:38 13.9 °C 8.5 °C 1022.2 hPa South 16.7 km/h 16.7 km/h 70 % 0.0 mm 37.0 W/m2 BKN
08:43 13.9 °C 8.5 °C 1022.2 hPa South 11.3 km/h 11.3 km/h 70 % 0.0 mm 49.0 W/m2 SCT
08:48 14.4 °C 9.1 °C 1022.2 hPa South 11.3 km/h 11.3 km/h 70 % 0.0 mm 60.0 W/m2 SCT
08:53 14.4 °C 9.1 °C 1022.2 hPa South 20.4 km/h 20.4 km/h 70 % 0.0 mm 76.0 W/m2 SCT
08:58 15.0 °C 9.3 °C 1022.2 hPa South 9.3 km/h 9.3 km/h 69 % 0.0 mm 90.0 W/m2 CLR
09:03 15.0 °C 9.1 °C 1022.6 hPa South 18.5 km/h 18.5 km/h 68 % 0.0 mm 95.0 W/m2 CLR
09:08 15.6 °C 9.7 °C 1022.2 hPa SSW 18.5 km/h 18.5 km/h 68 % 0.0 mm 123.0 W/m2 CLR
09:13 15.6 °C 9.4 °C 1022.6 hPa SSW 25.9 km/h 25.9 km/h 67 % 0.0 mm 120.0 W/m2 CLR
09:18 16.1 °C 10.0 °C 1022.6 hPa SSW 33.3 km/h 33.3 km/h 67 % 0.0 mm 160.0 W/m2 CLR
09:23 16.1 °C 10.0 °C 1022.6 hPa SSW 20.4 km/h 20.4 km/h 67 % 0.0 mm 172.0 W/m2 CLR
09:33 16.7 °C 10.3 °C 1022.6 hPa SSW 18.5 km/h 18.5 km/h 66 % 0.0 mm 211.0 W/m2 CLR
09:38 16.7 °C 10.3 °C 1022.6 hPa SW 24.1 km/h 24.1 km/h 66 % 0.0 mm 230.0 W/m2 CLR
09:48 16.7 °C 10.1 °C 1022.6 hPa SSW 31.5 km/h 31.5 km/h 65 % 0.0 mm 260.0 W/m2 CLR
09:53 17.2 °C 10.6 °C 1022.6 hPa SSW 20.4 km/h 20.4 km/h 65 % 0.0 mm 274.0 W/m2 CLR
10:03 17.2 °C 10.3 °C 1022.6 hPa SSW 30.6 km/h 30.6 km/h 64 % 0.0 mm 304.0 W/m2 CLR
10:08 17.2 °C 10.3 °C 1022.6 hPa SSW 29.6 km/h 29.6 km/h 64 % 0.0 mm 318.0 W/m2 CLR
10:13 17.2 °C 10.3 °C 1022.6 hPa SW 20.4 km/h 20.4 km/h 64 % 0.0 mm 332.0 W/m2 CLR
10:18 17.8 °C 10.4 °C 1022.6 hPa SSW 27.8 km/h 27.8 km/h 62 % 0.0 mm 346.0 W/m2 CLR
10:23 17.8 °C 10.4 °C 1022.9 hPa SW 27.8 km/h 27.8 km/h 62 % 0.0 mm 364.0 W/m2 CLR
10:28 17.8 °C 10.4 °C 1022.9 hPa SSW 27.8 km/h 27.8 km/h 62 % 0.0 mm 378.0 W/m2 CLR
10:33 17.8 °C 10.2 °C 1022.9 hPa SSW 22.2 km/h 22.2 km/h 61 % 0.0 mm 392.0 W/m2 CLR
10:38 18.3 °C 10.7 °C 1022.9 hPa SW 25.9 km/h 25.9 km/h 61 % 0.0 mm 404.0 W/m2 CLR
10:43 18.3 °C 10.7 °C 1022.9 hPa SSW 38.9 km/h 38.9 km/h 61 % 0.0 mm 417.0 W/m2 CLR
10:48 18.3 °C 10.7 °C 1022.9 hPa SSW 30.6 km/h 30.6 km/h 61 % 0.0 mm 432.0 W/m2 CLR
10:53 18.3 °C 10.7 °C 1022.9 hPa SW 31.5 km/h 31.5 km/h 61 % 0.0 mm 443.0 W/m2 CLR
10:58 18.3 °C 10.4 °C 1022.9 hPa SW 25.9 km/h 25.9 km/h 60 % 0.0 mm 452.0 W/m2 CLR
11:03 18.3 °C 10.2 °C 1022.9 hPa SW 22.2 km/h 22.2 km/h 59 % 0.0 mm 466.0 W/m2 CLR
11:08 18.9 °C 10.4 °C 1022.9 hPa SSW 27.8 km/h 27.8 km/h 58 % 0.0 mm 482.0 W/m2 CLR
11:13 18.9 °C 10.4 °C 1022.9 hPa SSW 27.4 km/h 27.4 km/h 58 % 0.0 mm 494.0 W/m2 CLR
11:18 18.9 °C 10.4 °C 1022.9 hPa SSW 25.9 km/h 25.9 km/h 58 % 0.0 mm 501.0 W/m2 CLR
11:19 18.9 °C 10.7 °C 1022.9 hPa South 18.5 km/h 18.5 km/h 59 % 0.0 mm 504.0 W/m2 CLR
11:24 19.4 °C 10.9 °C 1022.9 hPa South 25.9 km/h 25.9 km/h 58 % 0.0 mm 513.0 W/m2 CLR
11:29 19.4 °C 10.4 °C 1022.6 hPa SSW 33.3 km/h 33.3 km/h 56 % 0.0 mm 527.0 W/m2 CLR
11:34 19.4 °C 10.4 °C 1022.6 hPa SSW 27.8 km/h 27.8 km/h 56 % 0.0 mm 538.0 W/m2 CLR
11:39 19.4 °C 10.2 °C 1022.6 hPa South 29.6 km/h 29.6 km/h 55 % 0.0 mm 550.0 W/m2 CLR
11:44 19.4 °C 10.4 °C 1022.6 hPa SSW 25.9 km/h 25.9 km/h 56 % 0.0 mm 557.0 W/m2 CLR
11:49 19.4 °C 10.2 °C 1022.6 hPa SSW 29.6 km/h 29.6 km/h 55 % 0.0 mm 568.0 W/m2 CLR
11:54 20.0 °C 10.7 °C 1022.6 hPa South 31.5 km/h 31.5 km/h 55 % 0.0 mm 580.0 W/m2 CLR
11:59 20.0 °C 10.7 °C 1022.6 hPa South 29.6 km/h 29.6 km/h 55 % 0.0 mm 585.0 W/m2 CLR
12:04 20.0 °C 10.4 °C 1022.6 hPa South 27.8 km/h 27.8 km/h 54 % 0.0 mm 596.0 W/m2 CLR
12:09 20.6 °C 10.9 °C 1022.6 hPa SSW 29.6 km/h 29.6 km/h 54 % 0.0 mm 601.0 W/m2 CLR
12:14 20.6 °C 10.7 °C 1022.6 hPa SSW 25.9 km/h 25.9 km/h 53 % 0.0 mm 612.0 W/m2 CLR
12:19 20.6 °C 10.7 °C 1022.6 hPa WSW 27.4 km/h 27.4 km/h 53 % 0.0 mm 613.0 W/m2 CLR
12:24 21.1 °C 10.9 °C 1022.6 hPa SW 29.6 km/h 29.6 km/h 52 % 0.0 mm 622.0 W/m2 CLR
12:29 21.1 °C 10.9 °C 1022.6 hPa SW 24.1 km/h 24.1 km/h 52 % 0.0 mm 631.0 W/m2 CLR
12:34 21.1 °C 11.2 °C 1022.6 hPa SW 24.1 km/h 24.1 km/h 53 % 0.0 mm 635.0 W/m2 CLR
12:39 21.1 °C 10.9 °C 1022.2 hPa WSW 19.3 km/h 19.3 km/h 52 % 0.0 mm 642.0 W/m2 CLR
12:44 21.7 °C 11.1 °C 1022.2 hPa SSW 24.1 km/h 24.1 km/h 51 % 0.0 mm 649.0 W/m2 CLR
12:49 22.2 °C 11.6 °C 1022.2 hPa SW 27.8 km/h 27.8 km/h 51 % 0.0 mm 654.0 W/m2 CLR
12:54 21.7 °C 10.8 °C 1022.2 hPa South 25.9 km/h 25.9 km/h 50 % 0.0 mm 659.0 W/m2 CLR
13:00 21.7 °C 11.4 °C 1022.2 hPa SSW 24.1 km/h 24.1 km/h 52 % 0.0 mm 663.0 W/m2 CLR
13:04 22.2 °C 11.9 °C 1021.9 hPa SW 29.6 km/h 29.6 km/h 52 % 0.0 mm 663.0 W/m2 CLR
13:09 22.2 °C 11.3 °C 1021.9 hPa SW 33.3 km/h 33.3 km/h 50 % 0.0 mm 666.0 W/m2 CLR
13:15 22.2 °C 11.6 °C 1021.9 hPa SW 29.6 km/h 29.6 km/h 51 % 0.0 mm 668.0 W/m2 CLR
13:20 22.2 °C 11.6 °C 1021.9 hPa WSW 25.9 km/h 25.9 km/h 51 % 0.0 mm 670.0 W/m2 CLR
13:25 22.8 °C 11.8 °C 1021.9 hPa SSW 27.8 km/h 27.8 km/h 50 % 0.0 mm 675.0 W/m2 CLR
13:30 22.2 °C 11.6 °C 1021.9 hPa SW 22.2 km/h 22.2 km/h 51 % 0.0 mm 673.0 W/m2 CLR
13:35 22.8 °C 11.5 °C 1021.9 hPa SW 31.5 km/h 31.5 km/h 49 % 0.0 mm 677.0 W/m2 CLR
13:40 22.8 °C 11.5 °C 1021.9 hPa SW 29.6 km/h 29.6 km/h 49 % 0.0 mm 680.0 W/m2 CLR
13:45 22.8 °C 11.5 °C 1021.6 hPa SW 31.5 km/h 31.5 km/h 49 % 0.0 mm 679.0 W/m2 CLR
13:50 22.8 °C 11.5 °C 1021.6 hPa SSW 31.5 km/h 31.5 km/h 49 % 0.0 mm 679.0 W/m2 CLR
13:55 22.8 °C 11.5 °C 1021.6 hPa SSW 25.9 km/h 25.9 km/h 49 % 0.0 mm 679.0 W/m2 CLR
14:00 23.3 °C 12.0 °C 1021.6 hPa SW 30.6 km/h 30.6 km/h 49 % 0.0 mm 680.0 W/m2 CLR
14:05 23.3 °C 12.0 °C 1021.2 hPa South 25.7 km/h 25.7 km/h 49 % 0.0 mm 679.0 W/m2 CLR
14:10 23.3 °C 12.0 °C 1021.2 hPa SW 32.2 km/h 32.8 km/h 49 % 0.0 mm 679.0 W/m2 CLR
14:15 23.9 °C 12.5 °C 1021.2 hPa SW 31.5 km/h 31.5 km/h 49 % 0.0 mm 677.0 W/m2 CLR
14:20 23.3 °C 12.0 °C 1021.2 hPa SSW 29.6 km/h 29.6 km/h 49 % 0.0 mm 671.0 W/m2 CLR
14:30 23.9 °C 12.2 °C 1020.9 hPa SW 33.8 km/h 33.8 km/h 48 % 0.0 mm 666.0 W/m2 CLR
14:35 23.9 °C 12.2 °C 1020.9 hPa SW 31.5 km/h 31.5 km/h 48 % 0.0 mm 664.0 W/m2 CLR
14:40 23.9 °C 12.2 °C 1020.9 hPa SSW 24.1 km/h 24.1 km/h 48 % 0.0 mm 661.0 W/m2 CLR
14:45 23.9 °C 12.2 °C 1020.9 hPa SSW 27.8 km/h 27.8 km/h 48 % 0.0 mm 654.0 W/m2 CLR
14:50 23.9 °C 11.9 °C 1020.5 hPa SSW 31.5 km/h 31.5 km/h 47 % 0.0 mm 650.0 W/m2 CLR
14:55 23.9 °C 11.9 °C 1020.5 hPa WSW 27.8 km/h 27.8 km/h 47 % 0.0 mm 647.0 W/m2 CLR
15:05 23.9 °C 11.6 °C 1020.5 hPa SW 24.1 km/h 24.1 km/h 46 % 0.0 mm 633.0 W/m2 CLR
15:07 23.9 °C 11.6 °C 1020.5 hPa SSW 24.1 km/h 24.1 km/h 46 % 0.0 mm 631.0 W/m2 CLR
15:12 23.9 °C 11.6 °C 1020.2 hPa SSW 35.2 km/h 35.2 km/h 46 % 0.0 mm 624.0 W/m2 CLR
15:17 24.4 °C 12.1 °C 1020.2 hPa SSW 31.5 km/h 31.5 km/h 46 % 0.0 mm 617.0 W/m2 CLR
15:22 23.9 °C 11.6 °C 1020.5 hPa SW 24.1 km/h 24.1 km/h 46 % 0.0 mm 612.0 W/m2 CLR
15:27 24.4 °C 11.7 °C 1020.2 hPa SSW 33.3 km/h 33.3 km/h 45 % 0.0 mm 605.0 W/m2 CLR
15:32 23.9 °C 11.6 °C 1020.2 hPa WSW 22.5 km/h 22.5 km/h 46 % 0.0 mm 596.0 W/m2 CLR
15:37 23.9 °C 11.6 °C 1020.2 hPa SW 31.5 km/h 31.5 km/h 46 % 0.0 mm 589.0 W/m2 CLR
15:42 24.4 °C 12.1 °C 1020.2 hPa SW 29.6 km/h 29.6 km/h 46 % 0.0 mm 577.0 W/m2 CLR
15:47 24.4 °C 11.7 °C 1020.2 hPa SSW 33.8 km/h 33.8 km/h 45 % 0.0 mm 570.0 W/m2 CLR
15:52 24.4 °C 11.7 °C 1019.9 hPa SSW 31.5 km/h 31.5 km/h 45 % 0.0 mm 564.0 W/m2 CLR
15:57 24.4 °C 11.7 °C 1019.9 hPa SW 25.9 km/h 25.9 km/h 45 % 0.0 mm 554.0 W/m2 CLR
16:02 24.4 °C 11.7 °C 1019.9 hPa SW 37.0 km/h 37.0 km/h 45 % 0.0 mm 541.0 W/m2 CLR
16:07 24.4 °C 11.7 °C 1019.9 hPa WSW 31.5 km/h 31.5 km/h 45 % 0.0 mm 533.0 W/m2 CLR
16:12 24.4 °C 11.4 °C 1019.9 hPa SW 31.5 km/h 31.5 km/h 44 % 0.0 mm 524.0 W/m2 CLR
16:17 24.4 °C 11.4 °C 1019.9 hPa SSW 27.8 km/h 27.8 km/h 44 % 0.0 mm 512.0 W/m2 CLR
16:22 25.0 °C 11.9 °C 1019.9 hPa SSW 22.2 km/h 22.2 km/h 44 % 0.0 mm 503.0 W/m2 CLR
16:27 25.0 °C 11.6 °C 1019.5 hPa SW 33.3 km/h 33.3 km/h 43 % 0.0 mm 490.0 W/m2 CLR
16:32 24.4 °C 11.4 °C 1019.5 hPa SSW 27.8 km/h 27.8 km/h 44 % 0.0 mm 475.0 W/m2 CLR
16:37 24.4 °C 11.4 °C 1019.5 hPa SW 37.0 km/h 37.0 km/h 44 % 0.0 mm 468.0 W/m2 CLR
16:42 24.4 °C 11.4 °C 1019.5 hPa SSW 25.7 km/h 25.7 km/h 44 % 0.0 mm 457.0 W/m2 CLR
16:52 25.0 °C 12.2 °C 1019.5 hPa WSW 35.2 km/h 35.2 km/h 45 % 0.0 mm 425.0 W/m2 CLR
16:57 25.0 °C 12.2 °C 1019.5 hPa SW 25.9 km/h 25.9 km/h 45 % 0.0 mm 411.0 W/m2 CLR
17:02 25.0 °C 12.2 °C 1019.5 hPa South 29.6 km/h 29.6 km/h 45 % 0.0 mm 397.0 W/m2 CLR
17:07 24.4 °C 11.7 °C 1019.5 hPa SSW 35.2 km/h 35.2 km/h 45 % 0.0 mm 385.0 W/m2 CLR
17:12 24.4 °C 11.7 °C 1019.5 hPa SW 35.2 km/h 35.2 km/h 45 % 0.0 mm 371.0 W/m2 CLR
17:17 24.4 °C 12.1 °C 1019.5 hPa SW 35.4 km/h 35.4 km/h 46 % 0.0 mm 355.0 W/m2 CLR
17:22 24.4 °C 11.7 °C 1019.5 hPa WSW 42.6 km/h 42.6 km/h 45 % 0.0 mm 338.0 W/m2 CLR
17:27 24.4 °C 12.1 °C 1019.5 hPa SW 40.7 km/h 40.7 km/h 46 % 0.0 mm 325.0 W/m2 CLR
17:32 24.4 °C 12.1 °C 1019.5 hPa SSW 31.5 km/h 31.5 km/h 46 % 0.0 mm 308.0 W/m2 CLR
17:37 24.4 °C 12.1 °C 1019.5 hPa WSW 38.9 km/h 38.9 km/h 46 % 0.0 mm 294.0 W/m2 CLR
17:42 23.9 °C 11.6 °C 1019.5 hPa WSW 32.2 km/h 32.2 km/h 46 % 0.0 mm 278.0 W/m2 CLR
17:47 23.9 °C 11.9 °C 1019.5 hPa SW 27.8 km/h 27.8 km/h 47 % 0.0 mm 265.0 W/m2 CLR
17:52 23.9 °C 11.9 °C 1019.5 hPa WSW 30.6 km/h 30.6 km/h 47 % 0.0 mm 248.0 W/m2 CLR
17:57 23.3 °C 11.4 °C 1019.5 hPa SW 24.1 km/h 24.1 km/h 47 % 0.0 mm 234.0 W/m2 CLR
18:02 23.3 °C 11.4 °C 1019.5 hPa SW 38.9 km/h 38.9 km/h 47 % 0.0 mm 214.0 W/m2 CLR
18:07 23.3 °C 11.4 °C 1019.5 hPa WSW 29.6 km/h 29.6 km/h 47 % 0.0 mm 195.0 W/m2 CLR
18:13 23.3 °C 11.4 °C 1019.5 hPa SW 31.5 km/h 31.5 km/h 47 % 0.0 mm 181.0 W/m2 CLR
18:17 23.3 °C 11.4 °C 1019.5 hPa SSW 31.5 km/h 31.5 km/h 47 % 0.0 mm 158.0 W/m2 CLR
18:22 23.3 °C 11.4 °C 1019.5 hPa SW 20.9 km/h 20.9 km/h 47 % 0.0 mm 139.0 W/m2 CLR
18:27 22.8 °C 10.9 °C 1019.5 hPa WSW 35.2 km/h 35.2 km/h 47 % 0.0 mm 121.0 W/m2 CLR
18:32 22.8 °C 10.9 °C 1019.9 hPa WSW 37.0 km/h 37.0 km/h 47 % 0.0 mm 109.0 W/m2 CLR
18:38 22.8 °C 10.9 °C 1019.9 hPa WSW 22.2 km/h 22.2 km/h 47 % 0.0 mm 95.0 W/m2 CLR
18:43 22.8 °C 10.9 °C 1019.9 hPa WSW 31.5 km/h 31.5 km/h 47 % 0.0 mm 72.0 W/m2 FEW
18:48 22.2 °C 10.4 °C 1019.9 hPa West 24.1 km/h 25.4 km/h 47 % 0.0 mm 62.0 W/m2 SCT
18:53 22.2 °C 10.7 °C 1019.9 hPa SW 18.5 km/h 18.5 km/h 48 % 0.0 mm 53.0 W/m2 SCT
18:58 22.2 °C 10.7 °C 1019.9 hPa SW 22.5 km/h 22.5 km/h 48 % 0.0 mm 40.0 W/m2 BKN
19:08 21.7 °C 10.5 °C 1020.2 hPa WSW 24.1 km/h 24.1 km/h 49 % 0.0 mm 23.0 W/m2 BKN
19:13 21.7 °C 10.5 °C 1020.2 hPa SSW 31.5 km/h 31.5 km/h 49 % 0.0 mm 18.0 W/m2 BKN
19:18 21.1 °C 10.3 °C 1020.2 hPa SW 22.2 km/h 22.2 km/h 50 % 0.0 mm 14.0 W/m2 BKN
19:23 21.1 °C 10.6 °C 1020.2 hPa SW 25.9 km/h 25.9 km/h 51 % 0.0 mm 11.0 W/m2 BKN
19:28 21.1 °C 10.6 °C 1020.2 hPa SSW 27.8 km/h 27.8 km/h 51 % 0.0 mm 7.0 W/m2 BKN
19:33 21.1 °C 10.6 °C 1020.2 hPa WSW 27.8 km/h 27.8 km/h 51 % 0.0 mm 5.0 W/m2 OVC
19:38 21.1 °C 10.6 °C 1020.2 hPa West 31.5 km/h 31.5 km/h 51 % 0.0 mm 0.0 W/m2 OVC
19:43 20.6 °C 10.1 °C 1020.5 hPa SW 25.9 km/h 25.9 km/h 51 % 0.0 mm 0.0 W/m2 OVC
19:48 20.6 °C 10.1 °C 1020.5 hPa WSW 18.5 km/h 18.5 km/h 51 % 0.0 mm 0.0 W/m2 CLR
19:53 20.6 °C 10.1 °C 1020.5 hPa SW 22.2 km/h 22.2 km/h 51 % 0.0 mm 0.0 W/m2 CLR
19:58 20.6 °C 10.1 °C 1020.5 hPa WSW 25.9 km/h 25.9 km/h 51 % 0.0 mm 0.0 W/m2 CLR
20:03 20.0 °C 9.8 °C 1020.9 hPa SW 24.1 km/h 24.1 km/h 52 % 0.0 mm 0.0 W/m2 CLR
20:08 20.0 °C 9.8 °C 1020.9 hPa SW 33.3 km/h 33.3 km/h 52 % 0.0 mm 0.0 W/m2 CLR
20:13 20.0 °C 9.8 °C 1020.9 hPa SW 29.6 km/h 29.6 km/h 52 % 0.0 mm 0.0 W/m2 CLR
20:18 20.0 °C 9.8 °C 1020.9 hPa SW 33.3 km/h 33.3 km/h 52 % 0.0 mm 0.0 W/m2 CLR
20:23 20.0 °C 9.8 °C 1021.2 hPa SW 40.2 km/h 40.2 km/h 52 % 0.0 mm 0.0 W/m2 CLR
20:28 19.4 °C 9.3 °C 1021.2 hPa SW 31.5 km/h 31.5 km/h 52 % 0.0 mm 0.0 W/m2 CLR
20:33 19.4 °C 9.3 °C 1021.2 hPa WSW 29.6 km/h 29.6 km/h 52 % 0.0 mm 0.0 W/m2 CLR
20:38 19.4 °C 9.1 °C 1021.2 hPa SW 29.6 km/h 29.6 km/h 51 % 0.0 mm 0.0 W/m2 CLR
20:43 19.4 °C 9.1 °C 1021.2 hPa SSW 31.5 km/h 31.5 km/h 51 % 0.0 mm 0.0 W/m2 CLR
20:48 18.9 °C 8.5 °C 1021.6 hPa SW 22.2 km/h 22.2 km/h 51 % 0.0 mm 0.0 W/m2 CLR
20:53 18.9 °C 8.5 °C 1021.6 hPa SW 29.6 km/h 29.6 km/h 51 % 0.0 mm 0.0 W/m2 CLR
20:58 18.9 °C 8.5 °C 1021.6 hPa SW 33.3 km/h 33.3 km/h 51 % 0.0 mm 0.0 W/m2 CLR
21:03 18.9 °C 8.5 °C 1021.6 hPa SSW 31.5 km/h 31.5 km/h 51 % 0.0 mm 0.0 W/m2 CLR
21:08 18.9 °C 8.5 °C 1021.6 hPa SSW 29.6 km/h 29.6 km/h 51 % 0.0 mm 0.0 W/m2 CLR
21:13 18.3 °C 8.3 °C 1021.6 hPa SW 31.5 km/h 31.5 km/h 52 % 0.0 mm 0.0 W/m2 CLR
21:18 18.3 °C 8.3 °C 1021.9 hPa SSW 25.7 km/h 25.7 km/h 52 % 0.0 mm 0.0 W/m2 CLR
21:23 18.3 °C 8.3 °C 1021.6 hPa SW 35.2 km/h 35.2 km/h 52 % 0.0 mm 0.0 W/m2 CLR
21:28 18.3 °C 8.3 °C 1021.9 hPa SSW 25.9 km/h 25.9 km/h 52 % 0.0 mm 0.0 W/m2 CLR
21:33 18.3 °C 8.6 °C 1021.9 hPa SSW 24.1 km/h 24.1 km/h 53 % 0.0 mm 0.0 W/m2 CLR
21:43 17.8 °C 8.3 °C 1021.9 hPa SSW 29.6 km/h 29.6 km/h 54 % 0.0 mm 0.0 W/m2 CLR
21:48 17.8 °C 8.3 °C 1021.9 hPa SSW 29.6 km/h 29.6 km/h 54 % 0.0 mm 0.0 W/m2 CLR
21:53 17.8 °C 8.1 °C 1021.9 hPa SSW 31.5 km/h 31.5 km/h 53 % 0.0 mm 0.0 W/m2 CLR
21:58 17.8 °C 8.1 °C 1022.2 hPa SSW 31.5 km/h 31.5 km/h 53 % 0.0 mm 0.0 W/m2 CLR
22:03 17.8 °C 8.1 °C 1022.2 hPa SSW 27.8 km/h 27.8 km/h 53 % 0.0 mm 0.0 W/m2 CLR
22:08 17.8 °C 8.1 °C 1022.2 hPa SSW 29.6 km/h 29.6 km/h 53 % 0.0 mm 0.0 W/m2 CLR
22:13 17.2 °C 7.8 °C 1022.2 hPa South 22.2 km/h 22.2 km/h 54 % 0.0 mm 0.0 W/m2 CLR
22:18 17.2 °C 8.1 °C 1022.6 hPa SSW 16.7 km/h 16.7 km/h 55 % 0.0 mm 0.0 W/m2 CLR
22:23 17.2 °C 8.1 °C 1022.6 hPa SSW 25.7 km/h 25.7 km/h 55 % 0.0 mm 0.0 W/m2 CLR
22:28 17.2 °C 8.1 °C 1022.6 hPa South 17.7 km/h 17.7 km/h 55 % 0.0 mm 0.0 W/m2 CLR
22:33 17.2 °C 8.1 °C 1022.6 hPa SSW 24.1 km/h 24.1 km/h 55 % 0.0 mm 0.0 W/m2 CLR
22:38 17.2 °C 8.1 °C 1022.6 hPa South 31.5 km/h 31.5 km/h 55 % 0.0 mm 0.0 W/m2 CLR
22:43 17.2 °C 8.4 °C 1022.6 hPa South 24.1 km/h 24.1 km/h 56 % 0.0 mm 0.0 W/m2 CLR
22:48 16.7 °C 7.8 °C 1022.6 hPa SSW 20.4 km/h 20.4 km/h 56 % 0.0 mm 0.0 W/m2 CLR
22:53 16.7 °C 8.1 °C 1022.6 hPa SSW 18.5 km/h 18.5 km/h 57 % 0.0 mm 0.0 W/m2 CLR
22:58 16.7 °C 8.1 °C 1022.6 hPa SSW 18.5 km/h 18.5 km/h 57 % 0.0 mm 0.0 W/m2 CLR
23:03 16.7 °C 8.1 °C 1022.6 hPa SSW 27.8 km/h 27.8 km/h 57 % 0.0 mm 0.0 W/m2 CLR
23:08 16.7 °C 8.3 °C 1022.6 hPa South 27.8 km/h 27.8 km/h 58 % 0.0 mm 0.0 W/m2 CLR
23:13 16.1 °C 7.8 °C 1022.9 hPa South 24.1 km/h 24.1 km/h 58 % 0.0 mm 0.0 W/m2 CLR
23:18 16.1 °C 7.8 °C 1022.6 hPa SSW 20.4 km/h 20.4 km/h 58 % 0.0 mm 0.0 W/m2 CLR
23:23 16.1 °C 7.8 °C 1022.9 hPa South 27.8 km/h 27.8 km/h 58 % 0.0 mm 0.0 W/m2 CLR
23:28 16.1 °C 7.8 °C 1022.9 hPa SSW 18.5 km/h 18.5 km/h 58 % 0.0 mm 0.0 W/m2 CLR
23:33 16.1 °C 7.8 °C 1022.9 hPa SSW 24.1 km/h 24.1 km/h 58 % 0.0 mm 0.0 W/m2 CLR
23:38 16.1 °C 7.8 °C 1023.2 hPa SW 20.4 km/h 20.4 km/h 58 % 0.0 mm 0.0 W/m2 CLR
23:43 16.1 °C 7.8 °C 1023.2 hPa SW 31.5 km/h 31.5 km/h 58 % 0.0 mm 0.0 W/m2 CLR
23:53 16.1 °C 7.8 °C 1023.2 hPa SSW 22.2 km/h 23.3 km/h 58 % 0.0 mm 0.0 W/m2 CLR
23:58 16.1 °C 7.8 °C 1023.2 hPa South 25.9 km/h 25.9 km/h 58 % 0.0 mm 0.0 W/m2 CLR
Lo Temps de Massalio
Compliments of Weather Underground - 1.25 mb